createdAt,value
2023-03-12T00:00:30.604Z,53.39
2023-03-12T00:01:20.674Z,53.60
2023-03-12T00:02:10.779Z,53.86
2023-03-12T00:03:01.043Z,53.48
2023-03-12T00:03:51.159Z,53.87
2023-03-12T00:04:41.168Z,53.64
2023-03-12T00:05:31.195Z,54.72
2023-03-12T00:06:21.270Z,53.76
2023-03-12T00:07:11.328Z,53.32
2023-03-12T00:08:01.369Z,53.24
2023-03-12T00:08:51.438Z,53.35
2023-03-12T00:09:41.526Z,53.94
2023-03-12T00:10:31.556Z,53.37
2023-03-12T00:11:21.649Z,53.40
2023-03-12T00:12:11.834Z,53.41
2023-03-12T00:13:01.905Z,53.06
2023-03-12T00:13:51.964Z,53.42
2023-03-12T00:14:42.289Z,53.63
2023-03-12T00:15:32.319Z,53.29
2023-03-12T00:16:22.385Z,53.13
2023-03-12T00:17:12.374Z,53.25
2023-03-12T00:18:02.447Z,53.10
2023-03-12T00:18:52.505Z,53.63
2023-03-12T00:19:42.612Z,53.26
2023-03-12T00:20:32.670Z,54.08
2023-03-12T00:21:22.698Z,53.00
2023-03-12T00:22:12.729Z,53.01
2023-03-12T00:23:02.835Z,53.63
2023-03-12T00:23:53.106Z,53.17
2023-03-12T00:24:43.197Z,53.14
2023-03-12T00:25:33.229Z,53.66
2023-03-12T00:26:23.562Z,54.61
2023-03-12T00:27:13.597Z,53.48
2023-03-12T00:28:03.665Z,53.22
2023-03-12T00:28:53.791Z,54.01
2023-03-12T00:29:43.800Z,54.07
2023-03-12T00:30:33.828Z,52.74
2023-03-12T00:31:23.992Z,53.68
2023-03-12T00:32:14.019Z,53.07
2023-03-12T00:33:04.080Z,53.50
2023-03-12T00:33:54.107Z,53.61
2023-03-12T00:34:44.169Z,53.37
2023-03-12T00:35:34.208Z,53.90
2023-03-12T00:36:24.270Z,53.42
2023-03-12T00:37:14.299Z,54.04
2023-03-12T00:38:04.373Z,54.11
2023-03-12T00:38:54.489Z,53.56
2023-03-12T00:39:44.555Z,53.12
2023-03-12T00:40:34.563Z,53.68
2023-03-12T00:41:24.647Z,53.01
2023-03-12T00:42:14.922Z,52.89
2023-03-12T00:43:04.977Z,52.74
2023-03-12T00:43:55.002Z,53.29
2023-03-12T00:44:45.340Z,53.07
2023-03-12T00:45:35.360Z,52.48
2023-03-12T00:46:25.523Z,53.49
2023-03-12T00:47:15.471Z,53.14
2023-03-12T00:48:05.550Z,52.77
2023-03-12T00:48:55.604Z,52.49
2023-03-12T00:49:45.680Z,52.59
2023-03-12T00:50:35.721Z,53.22
2023-03-12T00:51:25.794Z,52.85
2023-03-12T00:52:15.823Z,53.29
2023-03-12T00:53:05.898Z,54.07
2023-03-12T00:53:56.136Z,53.91
2023-03-12T00:54:46.259Z,53.65
2023-03-12T00:55:36.268Z,53.86
2023-03-12T00:56:26.306Z,53.59
2023-03-12T00:57:16.333Z,53.92
2023-03-12T00:58:06.412Z,54.20
2023-03-12T00:58:56.449Z,54.37
2023-03-12T00:59:46.542Z,54.22
2023-03-12T01:00:36.592Z,54.04
2023-03-12T01:01:26.640Z,54.07
2023-03-12T01:02:16.729Z,54.07
2023-03-12T01:03:06.993Z,53.25
2023-03-12T01:03:57.043Z,53.68
2023-03-12T01:04:47.124Z,54.08
2023-03-12T01:05:37.190Z,54.02
2023-03-12T01:06:27.256Z,54.07
2023-03-12T01:07:17.266Z,53.97
2023-03-12T01:08:07.334Z,54.11
2023-03-12T01:08:57.399Z,53.44
2023-03-12T01:09:47.490Z,53.98
2023-03-12T01:10:37.634Z,52.91
2023-03-12T01:11:27.559Z,52.73
2023-03-12T01:12:17.625Z,52.59
2023-03-12T01:13:07.694Z,53.35
2023-03-12T01:13:57.768Z,52.27
2023-03-12T01:14:47.842Z,52.29
2023-03-12T01:15:37.871Z,52.15
2023-03-12T01:16:28.072Z,52.57
2023-03-12T01:17:18.204Z,52.91
2023-03-12T01:18:08.285Z,53.19
2023-03-12T01:18:58.310Z,53.29
2023-03-12T01:19:48.402Z,52.77
2023-03-12T01:20:38.456Z,52.49
2023-03-12T01:21:28.512Z,52.57
2023-03-12T01:22:18.547Z,52.57
2023-03-12T01:23:08.599Z,52.82
2023-03-12T01:23:58.659Z,52.99
2023-03-12T01:24:48.742Z,53.32
2023-03-12T01:25:38.770Z,53.15
2023-03-12T01:26:29.087Z,53.62
2023-03-12T01:27:19.134Z,53.52
2023-03-12T01:28:09.176Z,52.97
2023-03-12T01:28:59.198Z,53.04
2023-03-12T01:29:49.309Z,53.18
2023-03-12T01:30:39.317Z,53.28
2023-03-12T01:31:29.420Z,53.20
2023-03-12T01:32:19.470Z,54.04
2023-03-12T01:33:09.481Z,53.74
2023-03-12T01:33:59.512Z,53.51
2023-03-12T01:34:49.611Z,53.75
2023-03-12T01:35:40.055Z,53.06
2023-03-12T01:36:30.050Z,53.32
2023-03-12T01:37:20.018Z,52.75
2023-03-12T01:38:10.060Z,52.78
2023-03-12T01:39:00.135Z,53.13
2023-03-12T01:39:50.211Z,53.38
2023-03-12T01:40:40.234Z,53.86
2023-03-12T01:41:30.310Z,54.43
2023-03-12T01:42:20.360Z,53.30
2023-03-12T01:43:10.424Z,53.35
2023-03-12T01:44:00.440Z,53.93
2023-03-12T01:44:50.553Z,53.59
2023-03-12T01:45:40.591Z,53.65
2023-03-12T01:46:30.648Z,53.06
2023-03-12T01:47:20.673Z,52.62
2023-03-12T01:48:10.754Z,53.49
2023-03-12T01:49:00.783Z,52.75
2023-03-12T01:49:50.891Z,52.92
2023-03-12T01:50:40.924Z,52.70
2023-03-12T01:51:31.211Z,53.11
2023-03-12T01:52:21.274Z,53.32
2023-03-12T01:53:11.350Z,53.27
2023-03-12T01:54:01.396Z,53.28
2023-03-12T01:54:51.484Z,52.79
2023-03-12T01:55:41.509Z,53.36
2023-03-12T01:56:31.591Z,53.25
2023-03-12T01:57:21.624Z,53.81
2023-03-12T01:58:11.721Z,53.28
2023-03-12T01:59:01.732Z,54.10
2023-03-12T01:59:51.792Z,53.53
2023-03-12T02:00:41.845Z,53.01
2023-03-12T02:01:31.966Z,52.97
2023-03-12T02:02:21.952Z,52.90
2023-03-12T02:03:12.026Z,53.03
2023-03-12T02:04:02.166Z,53.15
2023-03-12T02:04:52.147Z,53.24
2023-03-12T02:05:42.190Z,54.33
2023-03-12T02:06:32.265Z,53.02
2023-03-12T02:07:22.546Z,52.70
2023-03-12T02:08:12.602Z,52.97
2023-03-12T02:09:02.629Z,53.49
2023-03-12T02:09:52.668Z,53.92
2023-03-12T02:10:42.700Z,54.32
2023-03-12T02:11:32.749Z,53.42
2023-03-12T02:12:22.784Z,53.50
2023-03-12T02:13:12.818Z,53.57
2023-03-12T02:14:02.909Z,53.76
2023-03-12T02:14:52.966Z,54.46
2023-03-12T02:15:42.997Z,53.85
2023-03-12T02:16:33.133Z,53.79
2023-03-12T02:17:23.119Z,53.13
2023-03-12T02:18:13.201Z,52.59
2023-03-12T02:19:03.264Z,52.76
2023-03-12T02:19:53.354Z,52.94
2023-03-12T02:20:43.371Z,53.04
2023-03-12T02:21:33.442Z,52.99
2023-03-12T02:22:23.512Z,52.57
2023-03-12T02:23:13.762Z,52.89
2023-03-12T02:24:03.796Z,52.66
2023-03-12T02:24:53.860Z,53.02
2023-03-12T02:25:43.902Z,52.95
2023-03-12T02:26:33.961Z,52.47
2023-03-12T02:27:23.996Z,53.97
2023-03-12T02:28:14.145Z,53.86
2023-03-12T02:29:04.137Z,52.84
2023-03-12T02:29:54.223Z,52.81
2023-03-12T02:30:44.223Z,52.63
2023-03-12T02:31:34.351Z,54.21
2023-03-12T02:32:24.670Z,54.42
2023-03-12T02:33:14.655Z,53.24
2023-03-12T02:34:04.681Z,52.54
2023-03-12T02:34:54.789Z,52.89
2023-03-12T02:35:44.829Z,52.55
2023-03-12T02:36:34.901Z,52.86
2023-03-12T02:37:24.945Z,53.02
2023-03-12T02:38:14.980Z,53.46
2023-03-12T02:39:05.008Z,52.86
2023-03-12T02:39:55.094Z,53.01
2023-03-12T02:40:45.138Z,53.20
2023-03-12T02:41:35.212Z,52.88
2023-03-12T02:42:25.252Z,52.99
2023-03-12T02:43:15.333Z,53.07
2023-03-12T02:44:05.356Z,53.51
2023-03-12T02:44:55.440Z,53.15
2023-03-12T02:45:45.536Z,52.49
2023-03-12T02:46:35.533Z,52.83
2023-03-12T02:47:26.453Z,52.79
2023-03-12T02:48:15.614Z,53.60
2023-03-12T02:49:05.647Z,53.47
2023-03-12T02:49:55.727Z,53.30
2023-03-12T02:50:45.790Z,52.80
2023-03-12T02:51:35.869Z,52.89
2023-03-12T02:52:25.892Z,52.80
2023-03-12T02:53:15.971Z,53.67
2023-03-12T02:54:06.041Z,53.86
2023-03-12T02:54:56.336Z,53.09
2023-03-12T02:55:46.365Z,52.62
2023-03-12T02:56:36.445Z,52.70
2023-03-12T02:57:26.486Z,53.21
2023-03-12T02:58:16.542Z,53.28
2023-03-12T02:59:06.611Z,53.41
2023-03-12T02:59:56.684Z,53.48
2023-03-12T03:00:46.709Z,53.60
2023-03-12T03:01:36.911Z,52.71
2023-03-12T03:02:26.837Z,53.34
2023-03-12T03:03:16.906Z,53.35
2023-03-12T03:04:07.125Z,53.35
2023-03-12T03:04:57.013Z,54.23
2023-03-12T03:05:47.061Z,54.30
2023-03-12T03:06:37.106Z,53.22
2023-03-12T03:07:27.132Z,52.82
2023-03-12T03:08:17.176Z,53.37
2023-03-12T03:09:07.220Z,53.21
2023-03-12T03:09:57.294Z,53.76
2023-03-12T03:10:47.367Z,53.97
2023-03-12T03:11:37.451Z,53.95
2023-03-12T03:12:27.478Z,53.56
2023-03-12T03:13:17.552Z,53.56
2023-03-12T03:14:07.588Z,53.55
2023-03-12T03:14:57.654Z,53.85
2023-03-12T03:15:47.707Z,53.95
2023-03-12T03:16:37.742Z,52.91
2023-03-12T03:17:27.842Z,53.30
2023-03-12T03:18:17.883Z,53.16
2023-03-12T03:19:07.956Z,53.67
2023-03-12T03:19:58.295Z,53.37
2023-03-12T03:20:48.282Z,53.21
2023-03-12T03:21:38.352Z,53.63
2023-03-12T03:22:28.679Z,53.34
2023-03-12T03:23:18.762Z,53.06
2023-03-12T03:24:08.789Z,53.87
2023-03-12T03:24:58.891Z,53.18
2023-03-12T03:25:48.921Z,53.44
2023-03-12T03:26:38.957Z,53.05
2023-03-12T03:27:29.025Z,53.91
2023-03-12T03:28:19.105Z,53.64
2023-03-12T03:29:09.136Z,53.95
2023-03-12T03:29:59.230Z,53.10
2023-03-12T03:30:49.281Z,53.59
2023-03-12T03:31:39.566Z,52.28
2023-03-12T03:32:29.672Z,52.07
2023-03-12T03:33:19.681Z,52.37
2023-03-12T03:34:09.683Z,52.22
2023-03-12T03:34:59.776Z,52.26
2023-03-12T03:35:49.886Z,53.05
2023-03-12T03:36:39.870Z,52.55
2023-03-12T03:37:29.889Z,53.75
2023-03-12T03:38:19.970Z,53.06
2023-03-12T03:39:09.999Z,53.81
2023-03-12T03:40:00.163Z,53.44
2023-03-12T03:40:50.355Z,53.93
2023-03-12T03:41:40.423Z,53.18
2023-03-12T03:42:30.451Z,53.18
2023-03-12T03:43:20.533Z,53.34
2023-03-12T03:44:10.561Z,53.89
2023-03-12T03:45:00.680Z,53.44
2023-03-12T03:45:50.735Z,53.66
2023-03-12T03:46:40.947Z,53.87
2023-03-12T03:47:30.848Z,53.27
2023-03-12T03:48:20.932Z,54.18
2023-03-12T03:49:10.983Z,54.43
2023-03-12T03:50:01.265Z,54.33
2023-03-12T03:50:51.285Z,53.79
2023-03-12T03:51:41.362Z,53.20
2023-03-12T03:52:31.391Z,53.89
2023-03-12T03:53:21.465Z,53.72
2023-03-12T03:54:11.494Z,53.91
2023-03-12T03:55:01.611Z,53.65
2023-03-12T03:55:51.617Z,54.02
2023-03-12T03:56:41.694Z,53.70
2023-03-12T03:57:31.723Z,53.37
2023-03-12T03:58:21.815Z,53.97
2023-03-12T03:59:12.044Z,53.55
2023-03-12T04:00:03.818Z,53.54
2023-03-12T04:00:52.184Z,53.34
2023-03-12T04:01:42.258Z,52.31
2023-03-12T04:02:32.315Z,53.12
2023-03-12T04:03:22.452Z,52.67
2023-03-12T04:04:12.430Z,53.36
2023-03-12T04:05:02.589Z,53.37
2023-03-12T04:05:52.654Z,54.01
2023-03-12T04:06:42.635Z,53.21
2023-03-12T04:07:32.662Z,53.39
2023-03-12T04:08:22.733Z,53.85
2023-03-12T04:09:12.774Z,53.25
2023-03-12T04:10:02.873Z,53.70
2023-03-12T04:10:52.913Z,53.08
2023-03-12T04:11:42.947Z,53.49
2023-03-12T04:12:32.982Z,53.39
2023-03-12T04:13:23.070Z,52.93
2023-03-12T04:14:13.348Z,53.95
2023-03-12T04:15:03.438Z,53.77
2023-03-12T04:15:53.527Z,53.56
2023-03-12T04:16:43.539Z,53.46
2023-03-12T04:17:33.562Z,52.64
2023-03-12T04:18:23.676Z,52.20
2023-03-12T04:19:13.687Z,52.41
2023-03-12T04:20:03.730Z,52.22
2023-03-12T04:20:53.833Z,53.34
2023-03-12T04:21:43.886Z,53.43
2023-03-12T04:22:33.950Z,53.49
2023-03-12T04:23:24.288Z,53.42
2023-03-12T04:24:14.350Z,53.43
2023-03-12T04:25:04.444Z,52.71
2023-03-12T04:25:54.728Z,52.89
2023-03-12T04:26:44.812Z,53.66
2023-03-12T04:27:34.844Z,52.55
2023-03-12T04:28:25.184Z,52.30
2023-03-12T04:29:15.223Z,52.30
2023-03-12T04:30:05.313Z,52.99
2023-03-12T04:30:55.445Z,52.92
2023-03-12T04:31:45.495Z,53.31
2023-03-12T04:32:35.545Z,52.71
2023-03-12T04:33:25.499Z,52.40
2023-03-12T04:34:15.568Z,52.16
2023-03-12T04:35:05.738Z,53.03
2023-03-12T04:35:55.839Z,52.40
2023-03-12T04:36:45.832Z,53.74
2023-03-12T04:37:35.860Z,53.14
2023-03-12T04:38:25.939Z,53.22
2023-03-12T04:39:15.976Z,53.41
2023-03-12T04:40:06.076Z,52.97
2023-03-12T04:40:56.101Z,53.38
2023-03-12T04:41:46.181Z,53.69
2023-03-12T04:42:36.260Z,53.81
2023-03-12T04:43:26.326Z,53.39
2023-03-12T04:44:16.593Z,53.63
2023-03-12T04:45:06.684Z,52.53
2023-03-12T04:45:56.708Z,53.04
2023-03-12T04:46:47.073Z,53.52
2023-03-12T04:47:37.067Z,53.37
2023-03-12T04:48:27.144Z,52.44
2023-03-12T04:49:17.168Z,52.85
2023-03-12T04:50:07.278Z,52.65
2023-03-12T04:50:57.304Z,53.15
2023-03-12T04:51:47.407Z,53.67
2023-03-12T04:52:37.410Z,53.50
2023-03-12T04:53:27.545Z,53.27
2023-03-12T04:54:17.520Z,52.91
2023-03-12T04:55:07.610Z,52.95
2023-03-12T04:55:57.647Z,53.38
2023-03-12T04:56:47.723Z,52.58
2023-03-12T04:57:37.752Z,53.41
2023-03-12T04:58:27.830Z,52.90
2023-03-12T04:59:17.854Z,52.19
2023-03-12T05:00:07.962Z,52.65
2023-03-12T05:00:57.986Z,52.14
2023-03-12T05:01:48.063Z,52.54
2023-03-12T05:02:38.351Z,53.72
2023-03-12T05:03:28.364Z,53.32
2023-03-12T05:04:18.396Z,52.48
2023-03-12T05:05:08.484Z,52.99
2023-03-12T05:05:58.509Z,53.60
2023-03-12T05:06:48.596Z,52.98
2023-03-12T05:07:38.658Z,53.69
2023-03-12T05:08:28.708Z,53.67
2023-03-12T05:09:18.724Z,53.17
2023-03-12T05:10:08.829Z,53.66
2023-03-12T05:10:58.868Z,52.76
2023-03-12T05:11:49.155Z,53.31
2023-03-12T05:12:39.201Z,53.72
2023-03-12T05:13:29.229Z,53.85
2023-03-12T05:14:19.262Z,53.51
2023-03-12T05:15:09.349Z,53.05
2023-03-12T05:15:59.398Z,53.64
2023-03-12T05:16:49.453Z,53.49
2023-03-12T05:17:39.520Z,53.37
2023-03-12T05:18:29.596Z,53.69
2023-03-12T05:19:19.625Z,53.63
2023-03-12T05:20:09.719Z,53.92
2023-03-12T05:20:59.919Z,52.85
2023-03-12T05:21:49.997Z,52.65
2023-03-12T05:22:40.026Z,51.84
2023-03-12T05:23:30.118Z,52.80
2023-03-12T05:24:20.121Z,52.65
2023-03-12T05:25:10.232Z,52.72
2023-03-12T05:26:00.241Z,52.60
2023-03-12T05:26:50.316Z,52.63
2023-03-12T05:27:40.350Z,52.77
2023-03-12T05:28:30.425Z,52.86
2023-03-12T05:29:20.499Z,52.39
2023-03-12T05:30:10.833Z,52.37
2023-03-12T05:31:00.895Z,52.91
2023-03-12T05:31:51.036Z,52.20
2023-03-12T05:32:40.945Z,52.78
2023-03-12T05:33:30.978Z,52.86
2023-03-12T05:34:21.018Z,52.54
2023-03-12T05:35:11.128Z,52.98
2023-03-12T05:36:01.240Z,53.47
2023-03-12T05:36:51.202Z,52.49
2023-03-12T05:37:41.268Z,53.25
2023-03-12T05:38:31.399Z,53.91
2023-03-12T05:39:21.671Z,53.21
2023-03-12T05:40:11.739Z,52.80
2023-03-12T05:41:01.773Z,52.56
2023-03-12T05:41:52.123Z,52.77
2023-03-12T05:42:42.146Z,53.19
2023-03-12T05:43:32.214Z,52.41
2023-03-12T05:44:22.550Z,52.11
2023-03-12T05:45:12.641Z,51.95
2023-03-12T05:46:02.727Z,53.10
2023-03-12T05:46:52.744Z,52.65
2023-03-12T05:47:42.757Z,52.55
2023-03-12T05:48:32.836Z,52.78
2023-03-12T05:49:22.865Z,52.21
2023-03-12T05:50:12.965Z,52.20
2023-03-12T05:51:03.002Z,52.55
2023-03-12T05:51:53.072Z,52.30
2023-03-12T05:52:43.092Z,52.69
2023-03-12T05:53:33.174Z,52.73
2023-03-12T05:54:23.205Z,53.01
2023-03-12T05:55:13.288Z,52.62
2023-03-12T05:56:03.293Z,52.40
2023-03-12T05:56:53.377Z,53.11
2023-03-12T05:57:43.436Z,52.66
2023-03-12T05:58:33.525Z,52.68
2023-03-12T05:59:23.558Z,53.57
2023-03-12T06:00:13.884Z,53.33
2023-03-12T06:01:03.890Z,53.25
2023-03-12T06:01:54.012Z,53.26
2023-03-12T06:02:43.977Z,52.99
2023-03-12T06:03:34.105Z,52.16
2023-03-12T06:04:24.115Z,52.43
2023-03-12T06:05:14.197Z,52.35
2023-03-12T06:06:04.230Z,52.44
2023-03-12T06:06:54.263Z,52.67
2023-03-12T06:07:44.327Z,52.81
2023-03-12T06:08:34.409Z,52.95
2023-03-12T06:09:24.639Z,53.15
2023-03-12T06:10:14.805Z,53.06
2023-03-12T06:11:04.792Z,53.31
2023-03-12T06:11:55.107Z,52.97
2023-03-12T06:12:45.134Z,53.07
2023-03-12T06:13:35.215Z,52.68
2023-03-12T06:14:25.260Z,53.03
2023-03-12T06:15:15.318Z,53.75
2023-03-12T06:16:05.355Z,53.38
2023-03-12T06:16:55.532Z,53.06
2023-03-12T06:17:45.498Z,52.98
2023-03-12T06:18:35.591Z,53.05
2023-03-12T06:19:25.609Z,53.73
2023-03-12T06:20:15.692Z,53.56
2023-03-12T06:21:05.737Z,53.38
2023-03-12T06:21:55.803Z,52.65
2023-03-12T06:22:45.830Z,52.89
2023-03-12T06:23:35.911Z,53.31
2023-03-12T06:24:25.969Z,53.16
2023-03-12T06:25:16.054Z,53.00
2023-03-12T06:26:06.084Z,53.33
2023-03-12T06:26:56.177Z,53.51
2023-03-12T06:27:46.402Z,53.71
2023-03-12T06:28:36.489Z,53.05
2023-03-12T06:29:26.514Z,53.06
2023-03-12T06:30:16.902Z,53.53
2023-03-12T06:31:06.914Z,53.15
2023-03-12T06:31:57.061Z,53.32
2023-03-12T06:32:47.088Z,53.83
2023-03-12T06:33:37.064Z,52.91
2023-03-12T06:34:27.130Z,52.76
2023-03-12T06:35:17.225Z,52.61
2023-03-12T06:36:07.264Z,53.30
2023-03-12T06:36:57.330Z,53.26
2023-03-12T06:37:47.353Z,52.96
2023-03-12T06:38:37.405Z,52.87
2023-03-12T06:39:27.685Z,52.67
2023-03-12T06:40:17.844Z,52.72
2023-03-12T06:41:07.830Z,53.40
2023-03-12T06:41:58.113Z,53.21
2023-03-12T06:42:48.214Z,52.74
2023-03-12T06:43:38.241Z,52.97
2023-03-12T06:44:28.554Z,53.78
2023-03-12T06:45:18.651Z,53.04
2023-03-12T06:46:08.710Z,52.16
2023-03-12T06:46:59.013Z,52.17
2023-03-12T06:47:49.036Z,52.66
2023-03-12T06:48:39.111Z,52.64
2023-03-12T06:49:29.146Z,53.36
2023-03-12T06:50:19.202Z,52.42
2023-03-12T06:51:09.241Z,52.39
2023-03-12T06:51:59.309Z,52.35
2023-03-12T06:52:49.338Z,53.28
2023-03-12T06:53:42.212Z,53.59
2023-03-12T06:54:29.465Z,53.20
2023-03-12T06:55:19.558Z,52.53
2023-03-12T06:56:09.601Z,53.13
2023-03-12T06:56:59.668Z,53.56
2023-03-12T06:57:49.699Z,53.72
2023-03-12T06:58:39.809Z,52.98
2023-03-12T06:59:29.810Z,53.05
2023-03-12T07:00:20.166Z,53.82
2023-03-12T07:01:10.195Z,53.42
2023-03-12T07:02:00.319Z,53.36
2023-03-12T07:02:50.340Z,53.57
2023-03-12T07:03:40.418Z,53.79
2023-03-12T07:04:30.455Z,53.11
2023-03-12T07:05:20.649Z,52.67
2023-03-12T07:06:10.569Z,53.65
2023-03-12T07:07:00.672Z,54.03
2023-03-12T07:07:50.720Z,54.08
2023-03-12T07:08:40.768Z,53.79
2023-03-12T07:09:31.062Z,53.81
2023-03-12T07:10:21.121Z,52.91
2023-03-12T07:11:11.156Z,52.69
2023-03-12T07:12:01.215Z,53.47
2023-03-12T07:12:51.231Z,52.62
2023-03-12T07:13:41.309Z,52.73
2023-03-12T07:14:31.354Z,52.94
2023-03-12T07:15:21.458Z,52.61
2023-03-12T07:16:11.666Z,53.64
2023-03-12T07:17:01.609Z,52.47
2023-03-12T07:17:51.609Z,52.51
2023-03-12T07:18:41.681Z,52.61
2023-03-12T07:19:31.746Z,52.05
2023-03-12T07:20:21.850Z,52.27
2023-03-12T07:21:11.892Z,52.97
2023-03-12T07:22:01.956Z,53.31
2023-03-12T07:22:51.988Z,53.85
2023-03-12T07:23:42.071Z,52.74
2023-03-12T07:24:32.104Z,52.21
2023-03-12T07:25:22.410Z,52.00
2023-03-12T07:26:12.450Z,53.83
2023-03-12T07:27:02.524Z,52.77
2023-03-12T07:27:52.556Z,52.33
2023-03-12T07:28:42.637Z,52.73
2023-03-12T07:29:32.697Z,52.68
2023-03-12T07:30:22.817Z,52.59
2023-03-12T07:31:12.902Z,52.50
2023-03-12T07:32:02.897Z,52.33
2023-03-12T07:32:53.719Z,52.71
2023-03-12T07:33:43.160Z,53.32
2023-03-12T07:34:33.294Z,51.97
2023-03-12T07:35:23.289Z,53.38
2023-03-12T07:36:13.336Z,51.92
2023-03-12T07:37:03.281Z,52.03
2023-03-12T07:37:53.312Z,51.76
2023-03-12T07:38:43.550Z,51.98
2023-03-12T07:39:33.576Z,52.22
2023-03-12T07:40:23.681Z,52.36
2023-03-12T07:41:13.757Z,52.51
2023-03-12T07:42:03.817Z,53.07
2023-03-12T07:42:53.848Z,52.10
2023-03-12T07:43:44.471Z,52.42
2023-03-12T07:44:33.952Z,52.16
2023-03-12T07:45:24.283Z,52.24
2023-03-12T07:46:14.428Z,53.24
2023-03-12T07:47:20.568Z,53.47
2023-03-12T07:47:55.457Z,52.49
2023-03-12T07:48:44.542Z,52.80
2023-03-12T07:49:34.498Z,53.47
2023-03-12T07:50:24.761Z,53.59
2023-03-12T07:51:14.614Z,52.47
2023-03-12T07:52:04.706Z,52.93
2023-03-12T07:52:54.713Z,52.10
2023-03-12T07:53:45.542Z,52.71
2023-03-12T07:54:35.056Z,52.19
2023-03-12T07:55:25.119Z,52.35
2023-03-12T07:56:15.335Z,53.54
2023-03-12T07:57:05.366Z,53.66
2023-03-12T07:57:55.249Z,52.40
2023-03-12T07:58:45.565Z,52.43
2023-03-12T07:59:35.338Z,52.51
2023-03-12T08:00:25.507Z,52.77
2023-03-12T08:01:15.634Z,51.94
2023-03-12T08:02:05.825Z,52.60
2023-03-12T08:02:55.916Z,52.50
2023-03-12T08:03:45.852Z,53.30
2023-03-12T08:04:35.996Z,53.15
2023-03-12T08:05:25.895Z,53.90
2023-03-12T08:06:16.004Z,53.31
2023-03-12T08:07:09.076Z,52.81
2023-03-12T08:07:56.043Z,52.57
2023-03-12T08:08:46.654Z,52.07
2023-03-12T08:09:36.152Z,52.06
2023-03-12T08:10:26.294Z,53.14
2023-03-12T08:11:16.398Z,53.79
2023-03-12T08:12:06.551Z,54.16
2023-03-12T08:12:56.610Z,54.04
2023-03-12T08:13:46.614Z,53.76
2023-03-12T08:14:36.729Z,54.12
2023-03-12T08:15:26.719Z,53.36
2023-03-12T08:16:16.775Z,53.53
2023-03-12T08:17:06.820Z,53.55
2023-03-12T08:17:56.902Z,53.74
2023-03-12T08:18:46.950Z,53.78
2023-03-12T08:19:36.967Z,52.98
2023-03-12T08:20:27.068Z,53.02
2023-03-12T08:21:17.099Z,53.92
2023-03-12T08:22:07.185Z,52.24
2023-03-12T08:22:57.228Z,52.88
2023-03-12T08:23:47.486Z,52.68
2023-03-12T08:24:37.339Z,52.14
2023-03-12T08:25:27.435Z,51.77
2023-03-12T08:26:17.450Z,52.83
2023-03-12T08:27:07.766Z,53.35
2023-03-12T08:27:57.832Z,52.34
2023-03-12T08:28:47.909Z,52.84
2023-03-12T08:29:38.204Z,52.34
2023-03-12T08:30:30.211Z,51.78
2023-03-12T08:31:18.378Z,51.87
2023-03-12T08:32:08.404Z,52.24
2023-03-12T08:32:58.534Z,52.15
2023-03-12T08:33:48.446Z,52.73
2023-03-12T08:34:38.481Z,51.85
2023-03-12T08:35:28.775Z,51.73
2023-03-12T08:36:21.191Z,52.13
2023-03-12T08:37:08.853Z,52.70
2023-03-12T08:37:58.962Z,52.00
2023-03-12T08:38:49.051Z,52.01
2023-03-12T08:39:39.106Z,52.07
2023-03-12T08:40:29.402Z,51.98
2023-03-12T08:41:19.456Z,52.33
2023-03-12T08:42:09.504Z,52.43
2023-03-12T08:42:59.537Z,52.10
2023-03-12T08:43:49.617Z,51.98
2023-03-12T08:44:39.642Z,52.02
2023-03-12T08:45:29.778Z,53.08
2023-03-12T08:46:19.901Z,54.31
2023-03-12T08:47:09.810Z,53.94
2023-03-12T08:47:59.837Z,54.19
2023-03-12T08:48:49.943Z,52.25
2023-03-12T08:49:39.957Z,52.09
2023-03-12T08:50:30.046Z,52.00
2023-03-12T08:51:20.096Z,52.07
2023-03-12T08:52:10.139Z,53.30
2023-03-12T08:53:00.157Z,53.86
2023-03-12T08:53:50.507Z,53.69
2023-03-12T08:54:40.528Z,53.80
2023-03-12T08:55:30.627Z,52.91
2023-03-12T08:56:20.953Z,52.53
2023-03-12T08:57:11.017Z,52.07
2023-03-12T08:58:01.021Z,51.86
2023-03-12T08:58:51.108Z,53.30
2023-03-12T08:59:41.132Z,52.72
2023-03-12T09:00:31.170Z,52.35
2023-03-12T09:01:21.222Z,51.78
2023-03-12T09:02:11.275Z,51.66
2023-03-12T09:03:01.387Z,51.77
2023-03-12T09:03:51.404Z,51.70
2023-03-12T09:04:41.532Z,51.93
2023-03-12T09:05:31.480Z,52.04
2023-03-12T09:06:21.533Z,52.05
2023-03-12T09:07:11.566Z,52.97
2023-03-12T09:08:01.597Z,52.15
2023-03-12T09:08:51.663Z,51.98
2023-03-12T09:09:41.719Z,51.80
2023-03-12T09:10:31.981Z,52.05
2023-03-12T09:11:21.852Z,51.89
2023-03-12T09:12:11.899Z,51.71
2023-03-12T09:13:01.910Z,52.68
2023-03-12T09:14:24.632Z,53.92
2023-03-12T09:15:02.496Z,53.27
2023-03-12T09:15:33.094Z,52.06
2023-03-12T09:16:22.315Z,52.53
2023-03-12T09:17:12.160Z,52.17
2023-03-12T09:18:02.233Z,52.91
2023-03-12T09:18:52.256Z,53.50
2023-03-12T09:19:42.369Z,52.55
2023-03-12T09:20:32.417Z,53.35
2023-03-12T09:21:22.605Z,52.98
2023-03-12T09:22:12.634Z,53.01
2023-03-12T09:23:02.704Z,53.18
2023-03-12T09:23:52.737Z,53.94
2023-03-12T09:24:42.818Z,52.57
2023-03-12T09:25:32.897Z,52.35
2023-03-12T09:26:22.959Z,52.34
2023-03-12T09:27:12.974Z,52.14
2023-03-12T09:28:03.066Z,52.50
2023-03-12T09:28:53.121Z,52.92
2023-03-12T09:29:58.780Z,52.84
2023-03-12T09:30:34.358Z,52.87
2023-03-12T09:31:23.360Z,53.33
2023-03-12T09:32:13.379Z,52.94
2023-03-12T09:33:03.462Z,53.70
2023-03-12T09:33:53.480Z,52.84
2023-03-12T09:34:43.558Z,51.56
2023-03-12T09:35:33.654Z,52.48
2023-03-12T09:36:23.678Z,52.79
2023-03-12T09:37:13.685Z,52.27
2023-03-12T09:38:03.757Z,52.08
2023-03-12T09:38:53.793Z,51.46
2023-03-12T09:39:43.831Z,51.38
2023-03-12T09:40:33.862Z,51.76
2023-03-12T09:41:23.959Z,52.88
2023-03-12T09:42:13.986Z,52.53
2023-03-12T09:43:04.319Z,52.02
2023-03-12T09:43:54.348Z,53.75
2023-03-12T09:44:44.423Z,52.26
2023-03-12T09:45:34.450Z,51.73
2023-03-12T09:46:24.585Z,51.45
2023-03-12T09:47:14.564Z,52.89
2023-03-12T09:48:04.649Z,51.76
2023-03-12T09:48:54.681Z,50.92
2023-03-12T09:49:44.723Z,50.75
2023-03-12T09:50:34.758Z,51.25
2023-03-12T09:51:24.841Z,50.82
2023-03-12T09:52:15.152Z,52.73
2023-03-12T09:53:05.206Z,52.32
2023-03-12T09:53:55.232Z,54.05
2023-03-12T09:54:47.509Z,51.70
2023-03-12T09:55:35.383Z,51.14
2023-03-12T09:56:25.474Z,51.17
2023-03-12T09:57:15.505Z,52.31
2023-03-12T09:58:05.577Z,51.98
2023-03-12T09:58:55.607Z,51.69
2023-03-12T09:59:45.950Z,51.67
2023-03-12T10:00:35.968Z,51.08
2023-03-12T10:01:26.030Z,51.89
2023-03-12T10:02:16.072Z,51.16
2023-03-12T10:03:06.208Z,51.90
2023-03-12T10:03:56.187Z,51.03
2023-03-12T10:04:58.979Z,52.03
2023-03-12T10:05:37.310Z,51.23
2023-03-12T10:06:26.417Z,51.25
2023-03-12T10:07:16.414Z,51.85
2023-03-12T10:08:23.090Z,51.22
2023-03-12T10:08:57.489Z,51.07
2023-03-12T10:09:46.534Z,50.78
2023-03-12T10:10:36.595Z,52.62
2023-03-12T10:11:26.685Z,50.93
2023-03-12T10:12:16.705Z,51.61
2023-03-12T10:13:06.780Z,51.23
2023-03-12T10:13:56.806Z,51.05
2023-03-12T10:14:46.983Z,50.65
2023-03-12T10:15:37.088Z,50.83
2023-03-12T10:16:27.065Z,50.52
2023-03-12T10:17:17.104Z,51.33
2023-03-12T10:18:07.266Z,50.46
2023-03-12T10:18:57.312Z,51.15
2023-03-12T10:19:47.306Z,52.66
2023-03-12T10:20:37.378Z,51.23
2023-03-12T10:21:27.466Z,51.80
2023-03-12T10:22:17.492Z,52.85
2023-03-12T10:23:07.556Z,51.25
2023-03-12T10:23:57.819Z,52.89
2023-03-12T10:24:47.889Z,51.93
2023-03-12T10:25:37.959Z,52.28
2023-03-12T10:26:28.244Z,53.83
2023-03-12T10:27:18.332Z,51.00
2023-03-12T10:28:08.376Z,51.91
2023-03-12T10:28:58.399Z,52.82
2023-03-12T10:29:48.468Z,50.98
2023-03-12T10:30:38.538Z,50.09
2023-03-12T10:31:28.750Z,50.32
2023-03-12T10:32:18.720Z,51.30
2023-03-12T10:33:08.720Z,52.13
2023-03-12T10:33:58.787Z,52.74
2023-03-12T10:34:48.821Z,50.77
2023-03-12T10:35:39.129Z,51.23
2023-03-12T10:36:29.157Z,52.02
2023-03-12T10:37:19.232Z,52.53
2023-03-12T10:38:09.546Z,52.93
2023-03-12T10:38:59.546Z,50.24
2023-03-12T10:39:49.620Z,49.37
2023-03-12T10:40:39.644Z,49.25
2023-03-12T10:41:29.718Z,50.65
2023-03-12T10:42:19.754Z,51.02
2023-03-12T10:43:09.836Z,50.51
2023-03-12T10:43:59.851Z,49.58
2023-03-12T10:44:49.896Z,49.45